createdAt,value
2023-04-27T00:02:39.997Z,51.54
2023-04-27T00:05:43.073Z,52.22
2023-04-27T00:08:45.518Z,52.32
2023-04-27T00:11:48.171Z,52.45
2023-04-27T00:14:50.771Z,52.20
2023-04-27T00:17:53.565Z,52.04
2023-04-27T00:20:55.978Z,52.25
2023-04-27T00:23:58.568Z,52.60
2023-04-27T00:27:01.735Z,52.55
2023-04-27T00:30:05.258Z,51.65
2023-04-27T00:33:08.820Z,51.67
2023-04-27T00:36:11.484Z,51.47
2023-04-27T00:39:14.033Z,52.26
2023-04-27T00:42:19.616Z,52.36
2023-04-27T00:45:22.211Z,53.18
2023-04-27T00:48:25.015Z,52.86
2023-04-27T00:51:30.298Z,53.01
2023-04-27T00:54:33.503Z,53.15
2023-04-27T00:57:35.889Z,54.13
2023-04-27T01:00:40.361Z,53.54
2023-04-27T01:03:42.869Z,53.07
2023-04-27T01:06:45.991Z,53.21
2023-04-27T01:09:48.345Z,53.03
2023-04-27T01:12:51.247Z,52.89
2023-04-27T01:15:53.583Z,52.51
2023-04-27T01:18:56.450Z,52.79
2023-04-27T01:21:59.424Z,53.23
2023-04-27T01:25:02.022Z,53.70
2023-04-27T01:28:06.497Z,54.48
2023-04-27T01:31:11.827Z,54.96
2023-04-27T01:34:14.210Z,55.47
2023-04-27T01:37:16.829Z,55.53
2023-04-27T01:40:19.399Z,55.15
2023-04-27T01:43:22.629Z,55.46
2023-04-27T01:46:25.041Z,55.73
2023-04-27T01:49:27.777Z,56.15
2023-04-27T01:52:31.730Z,56.00
2023-04-27T01:55:34.435Z,56.17
2023-04-27T01:58:37.177Z,55.76
2023-04-27T02:01:39.871Z,55.52
2023-04-27T02:04:43.583Z,55.69
2023-04-27T02:07:46.188Z,55.47
2023-04-27T02:10:48.928Z,55.29
2023-04-27T02:13:52.373Z,55.19
2023-04-27T02:16:55.111Z,54.98
2023-04-27T02:19:58.314Z,54.86
2023-04-27T02:23:02.362Z,54.85
2023-04-27T02:26:05.072Z,54.82
2023-04-27T02:29:07.579Z,55.18
2023-04-27T02:32:11.823Z,55.49
2023-04-27T02:35:14.293Z,56.61
2023-04-27T02:38:17.182Z,57.81
2023-04-27T02:41:19.817Z,57.98
2023-04-27T02:44:22.181Z,57.98
2023-04-27T02:47:26.873Z,58.14
2023-04-27T02:50:29.297Z,58.55
2023-04-27T02:53:31.911Z,58.08
2023-04-27T02:56:34.222Z,58.70
2023-04-27T02:59:36.948Z,58.31
2023-04-27T03:02:39.558Z,58.47
2023-04-27T03:05:42.238Z,58.32
2023-04-27T03:08:44.647Z,58.59
2023-04-27T03:11:47.244Z,58.30
2023-04-27T03:14:49.549Z,58.77
2023-04-27T03:17:53.462Z,59.10
2023-04-27T03:21:12.014Z,59.65
2023-04-27T03:24:14.702Z,59.75
2023-04-27T03:27:18.285Z,59.33
2023-04-27T03:30:20.945Z,59.23
2023-04-27T03:33:23.436Z,59.70
2023-04-27T03:36:27.085Z,59.25
2023-04-27T03:39:29.440Z,59.33
2023-04-27T03:42:32.077Z,59.22
2023-04-27T03:45:34.417Z,59.28
2023-04-27T03:48:37.205Z,59.27
2023-04-27T03:51:42.321Z,59.86
2023-04-27T03:54:45.017Z,59.95
2023-04-27T03:57:47.425Z,60.14
2023-04-27T04:00:50.137Z,60.32
2023-04-27T04:03:52.901Z,59.99
2023-04-27T04:06:55.571Z,59.81
2023-04-27T04:09:58.693Z,59.37
2023-04-27T04:13:01.062Z,59.11
2023-04-27T04:16:05.963Z,59.59
2023-04-27T04:19:08.777Z,59.62
2023-04-27T04:22:12.042Z,60.15
2023-04-27T04:25:14.695Z,60.52
2023-04-27T04:28:17.313Z,60.65
2023-04-27T04:31:21.683Z,60.38
2023-04-27T04:34:24.776Z,60.15
2023-04-27T04:37:27.838Z,60.04
2023-04-27T04:40:30.986Z,60.41
2023-04-27T04:43:33.405Z,60.50
2023-04-27T04:46:37.455Z,60.55
2023-04-27T04:49:39.979Z,60.28
2023-04-27T04:52:43.192Z,59.95
2023-04-27T04:55:45.624Z,59.71
2023-04-27T04:58:49.293Z,59.39
2023-04-27T05:01:55.600Z,58.88
2023-04-27T05:04:58.343Z,58.75
2023-04-27T05:08:00.821Z,58.53
2023-04-27T05:11:03.550Z,58.14
2023-04-27T05:14:05.906Z,58.09
2023-04-27T05:17:08.737Z,57.45
2023-04-27T05:20:11.685Z,57.02
2023-04-27T05:23:14.328Z,56.49
2023-04-27T05:26:18.455Z,55.97
2023-04-27T05:29:22.042Z,55.99
2023-04-27T05:32:24.537Z,55.93
2023-04-27T05:35:27.107Z,55.42
2023-04-27T05:38:29.465Z,54.57
2023-04-27T05:41:32.336Z,53.89
2023-04-27T05:44:34.733Z,53.90
2023-04-27T05:47:37.467Z,53.22
2023-04-27T05:50:40.105Z,53.40
2023-04-27T05:53:42.795Z,53.15
2023-04-27T05:56:45.164Z,52.61
2023-04-27T05:59:47.895Z,51.07
2023-04-27T06:02:50.402Z,48.91
2023-04-27T06:05:58.763Z,46.55
2023-04-27T06:09:02.300Z,45.08
2023-04-27T06:12:06.633Z,43.61
2023-04-27T06:15:09.939Z,42.36
2023-04-27T06:18:13.189Z,43.27
2023-04-27T06:21:15.498Z,43.62
2023-04-27T06:24:18.470Z,42.82
2023-04-27T06:27:20.784Z,41.88
2023-04-27T06:30:26.760Z,40.89
2023-04-27T06:33:29.147Z,40.72
2023-04-27T06:36:31.761Z,40.04
2023-04-27T06:39:34.255Z,39.59
2023-04-27T06:42:37.272Z,39.62
2023-04-27T06:45:40.093Z,39.36
2023-04-27T06:48:42.813Z,39.00
2023-04-27T06:51:46.696Z,38.92
2023-04-27T06:54:49.386Z,37.22
2023-04-27T06:57:51.795Z,37.96
2023-04-27T07:00:54.569Z,37.10
2023-04-27T07:03:57.672Z,35.90
2023-04-27T07:07:00.436Z,36.65
2023-04-27T07:10:02.889Z,36.14
2023-04-27T07:13:08.827Z,35.16
2023-04-27T07:16:11.738Z,34.72
2023-04-27T07:19:14.605Z,33.46
2023-04-27T07:22:18.011Z,33.69
2023-04-27T07:25:21.621Z,33.59
2023-04-27T07:28:23.945Z,34.33
2023-04-27T07:31:26.830Z,34.81
2023-04-27T07:34:35.068Z,34.74
2023-04-27T07:37:45.545Z,33.54
2023-04-27T07:40:47.943Z,33.75
2023-04-27T07:43:51.835Z,32.70
2023-04-27T07:46:54.793Z,32.24
2023-04-27T07:49:57.835Z,32.14
2023-04-27T07:53:00.744Z,31.94
2023-04-27T07:56:06.032Z,31.55
2023-04-27T07:59:08.426Z,31.17
2023-04-27T08:02:19.861Z,30.39
2023-04-27T08:05:23.775Z,30.31
2023-04-27T08:08:26.476Z,30.00
2023-04-27T08:11:29.279Z,30.46
2023-04-27T08:14:34.674Z,29.70
2023-04-27T08:17:40.493Z,29.01
2023-04-27T08:20:42.831Z,29.16
2023-04-27T08:23:45.436Z,28.75
2023-04-27T08:26:48.476Z,29.77
2023-04-27T08:29:51.632Z,29.69
2023-04-27T08:32:55.764Z,30.02
2023-04-27T08:35:58.465Z,29.96
2023-04-27T08:39:00.943Z,30.45
2023-04-27T08:42:13.926Z,30.73
2023-04-27T08:45:16.526Z,30.70
2023-04-27T08:48:20.447Z,30.65
2023-04-27T08:51:24.255Z,31.08
2023-04-27T08:54:27.254Z,31.34
2023-04-27T08:57:29.612Z,31.70
2023-04-27T09:00:42.343Z,30.69
2023-04-27T09:03:46.973Z,30.63
2023-04-27T09:06:49.868Z,29.87
2023-04-27T09:10:03.642Z,28.95
2023-04-27T09:13:06.601Z,29.24
2023-04-27T09:16:09.294Z,28.94
2023-04-27T09:19:12.246Z,28.79
2023-04-27T09:22:15.596Z,29.06
2023-04-27T09:25:28.059Z,28.98
2023-04-27T09:28:32.398Z,29.12
2023-04-27T09:31:36.127Z,28.48
2023-04-27T09:34:40.769Z,28.45
2023-04-27T09:37:43.963Z,28.71
2023-04-27T09:40:47.054Z,28.70
2023-04-27T09:43:50.642Z,28.66
2023-04-27T09:46:53.695Z,28.41
2023-04-27T09:49:59.706Z,28.39
2023-04-27T09:53:02.976Z,28.78
2023-04-27T09:56:28.517Z,28.99
2023-04-27T09:59:40.044Z,28.67
2023-04-27T10:06:32.404Z,29.27
2023-04-27T10:09:46.384Z,29.95
2023-04-27T10:13:01.902Z,29.22
2023-04-27T10:16:17.224Z,28.53
2023-04-27T10:19:21.745Z,27.86
2023-04-27T10:22:25.012Z,27.68
2023-04-27T10:25:41.601Z,26.81
2023-04-27T10:28:45.520Z,27.96
2023-04-27T10:31:48.999Z,28.26
2023-04-27T10:35:02.386Z,27.79
2023-04-27T10:38:10.119Z,27.41
2023-04-27T10:41:15.507Z,27.43
2023-04-27T10:44:20.685Z,28.43
2023-04-27T10:47:24.509Z,27.61
2023-04-27T10:50:28.158Z,27.45
2023-04-27T10:53:36.096Z,27.41
2023-04-27T10:56:38.744Z,27.55
2023-04-27T10:59:52.520Z,28.09
2023-04-27T11:02:57.290Z,28.57
2023-04-27T11:06:02.287Z,29.24
2023-04-27T11:09:06.523Z,29.18
2023-04-27T11:12:12.172Z,29.74
2023-04-27T11:15:15.003Z,29.18
2023-04-27T11:18:19.797Z,29.23
2023-04-27T11:21:23.154Z,29.31
2023-04-27T11:24:25.505Z,28.82
2023-04-27T11:27:40.733Z,30.40
2023-04-27T11:30:43.132Z,30.10
2023-04-27T11:33:49.504Z,27.39
2023-04-27T11:37:17.514Z,26.85
2023-04-27T11:40:22.651Z,26.50
2023-04-27T11:43:27.668Z,27.06
2023-04-27T11:46:30.806Z,26.72
2023-04-27T11:49:33.652Z,26.67
2023-04-27T11:52:38.192Z,26.70
2023-04-27T11:55:41.553Z,26.61
2023-04-27T11:58:46.457Z,27.66
2023-04-27T12:01:49.334Z,28.28
2023-04-27T12:04:52.312Z,28.05
2023-04-27T12:07:54.846Z,27.05
2023-04-27T12:10:57.462Z,26.19
2023-04-27T12:13:59.889Z,26.17
2023-04-27T12:17:03.081Z,26.94
2023-04-27T12:20:06.474Z,27.39
2023-04-27T12:23:09.197Z,26.71
2023-04-27T12:26:14.249Z,27.48
2023-04-27T12:29:18.039Z,27.91
2023-04-27T12:32:20.508Z,27.49
2023-04-27T12:35:23.280Z,28.28
2023-04-27T12:38:25.584Z,28.63
2023-04-27T12:41:28.323Z,28.03
2023-04-27T12:44:30.769Z,27.16
2023-04-27T12:47:50.356Z,26.84
2023-04-27T12:50:57.673Z,26.88
2023-04-27T12:54:02.177Z,27.68
2023-04-27T12:57:06.584Z,27.16
2023-04-27T13:00:13.525Z,27.39
2023-04-27T13:03:16.290Z,27.45
2023-04-27T13:06:22.921Z,27.18
2023-04-27T13:09:25.613Z,26.59
2023-04-27T13:12:28.698Z,26.34
2023-04-27T13:15:31.731Z,26.15
2023-04-27T13:18:35.030Z,26.82
2023-04-27T13:21:38.174Z,26.90
2023-04-27T13:24:42.133Z,26.66
2023-04-27T13:27:44.489Z,26.26
2023-04-27T13:30:48.874Z,26.01
2023-04-27T13:33:51.295Z,25.94
2023-04-27T13:36:54.129Z,25.87
2023-04-27T13:39:56.532Z,26.36
2023-04-27T13:42:59.234Z,26.02
2023-04-27T13:46:02.979Z,25.88
2023-04-27T13:49:06.609Z,25.88
2023-04-27T13:52:09.914Z,25.37
2023-04-27T13:55:12.820Z,26.02
2023-04-27T13:58:15.812Z,26.30
2023-04-27T14:01:18.617Z,26.37
2023-04-27T14:04:21.452Z,26.42
2023-04-27T14:07:23.924Z,26.05
2023-04-27T14:10:26.765Z,26.55
2023-04-27T14:13:29.487Z,26.35
2023-04-27T14:16:32.316Z,26.74
2023-04-27T14:19:34.725Z,26.02
2023-04-27T14:22:37.755Z,25.86
2023-04-27T14:25:40.356Z,25.52
2023-04-27T14:28:43.081Z,25.83
2023-04-27T14:31:46.016Z,25.91
2023-04-27T14:34:49.421Z,25.96
2023-04-27T14:37:52.606Z,26.40
2023-04-27T14:40:56.277Z,26.44
2023-04-27T14:43:59.426Z,26.11
2023-04-27T14:47:02.599Z,26.41
2023-04-27T14:50:06.036Z,26.27
2023-04-27T14:53:09.065Z,26.63
2023-04-27T14:56:12.471Z,26.53
2023-04-27T14:59:15.497Z,26.88
2023-04-27T15:02:18.879Z,26.51
2023-04-27T15:05:21.619Z,26.59
2023-04-27T15:08:24.037Z,27.51
2023-04-27T15:11:26.827Z,27.46
2023-04-27T15:14:29.376Z,26.82
2023-04-27T15:17:32.452Z,27.85
2023-04-27T15:20:35.394Z,27.45
2023-04-27T15:23:38.557Z,27.37
2023-04-27T15:26:42.235Z,27.50
2023-04-27T15:29:45.553Z,27.69
2023-04-27T15:32:48.578Z,27.64
2023-04-27T15:35:51.680Z,27.95
2023-04-27T15:38:54.778Z,28.24
2023-04-27T15:41:59.687Z,28.03
2023-04-27T15:45:02.174Z,28.10
2023-04-27T15:48:05.014Z,28.11
2023-04-27T15:51:10.097Z,28.22
2023-04-27T15:54:14.130Z,28.46
2023-04-27T15:57:18.506Z,28.52
2023-04-27T16:00:22.544Z,28.84
2023-04-27T16:03:25.655Z,28.47
2023-04-27T16:06:33.354Z,28.13
2023-04-27T16:09:36.750Z,28.36
2023-04-27T16:12:39.179Z,28.05
2023-04-27T16:15:41.770Z,28.36
2023-04-27T16:18:44.568Z,28.48
2023-04-27T16:21:47.555Z,28.57
2023-04-27T16:24:50.601Z,28.63
2023-04-27T16:27:53.242Z,28.67
2023-04-27T16:30:56.144Z,28.79
2023-04-27T16:33:58.760Z,28.92
2023-04-27T16:37:01.907Z,29.25
2023-04-27T16:40:07.774Z,29.45
2023-04-27T16:43:10.199Z,29.27
2023-04-27T16:46:14.656Z,29.54
2023-04-27T16:49:17.379Z,29.63
2023-04-27T16:52:21.068Z,29.78
2023-04-27T16:55:23.494Z,30.06
2023-04-27T16:58:26.460Z,30.04
2023-04-27T17:01:30.180Z,30.30
2023-04-27T17:04:35.572Z,30.59
2023-04-27T17:07:38.437Z,30.66
2023-04-27T17:10:42.116Z,30.88
2023-04-27T17:13:44.529Z,31.16
2023-04-27T17:16:47.908Z,31.20
2023-04-27T17:19:50.233Z,31.37
2023-04-27T17:22:52.945Z,31.64
2023-04-27T17:25:56.057Z,31.78
2023-04-27T17:29:01.302Z,32.30
2023-04-27T17:32:04.598Z,32.16
2023-04-27T17:35:07.530Z,32.26
2023-04-27T17:38:11.230Z,32.70
2023-04-27T17:41:13.917Z,32.92
2023-04-27T17:44:16.658Z,33.10
2023-04-27T17:47:20.573Z,33.17
2023-04-27T17:50:24.562Z,33.51
2023-04-27T17:53:27.553Z,33.47
2023-04-27T17:56:29.899Z,33.52
2023-04-27T17:59:33.112Z,33.74
2023-04-27T18:02:35.707Z,33.71
2023-04-27T18:05:38.609Z,34.01
2023-04-27T18:08:41.273Z,34.09
2023-04-27T18:11:44.012Z,34.30
2023-04-27T18:14:46.501Z,34.28
2023-04-27T18:17:49.413Z,34.42
2023-04-27T18:20:52.521Z,34.93
2023-04-27T18:23:56.281Z,34.79
2023-04-27T18:27:00.068Z,35.13
2023-04-27T18:30:03.888Z,35.76
2023-04-27T18:33:06.345Z,35.90
2023-04-27T18:36:09.116Z,35.74
2023-04-27T18:39:11.822Z,35.91
2023-04-27T18:42:14.512Z,36.24
2023-04-27T18:45:17.054Z,36.26
2023-04-27T18:48:20.097Z,36.50
2023-04-27T18:51:26.079Z,36.82
2023-04-27T18:54:29.056Z,36.58
2023-04-27T18:57:31.895Z,36.46
2023-04-27T19:00:35.222Z,36.03
2023-04-27T19:03:37.683Z,35.86
2023-04-27T19:06:40.891Z,35.91
2023-04-27T19:09:43.315Z,36.48
2023-04-27T19:12:46.031Z,36.70
2023-04-27T19:15:48.526Z,36.88
2023-04-27T19:18:51.466Z,38.19
2023-04-27T19:21:54.744Z,37.56
2023-04-27T19:24:57.410Z,39.42
2023-04-27T19:28:00.572Z,40.15
2023-04-27T19:31:03.904Z,41.16
2023-04-27T19:34:06.301Z,41.37
2023-04-27T19:37:08.970Z,41.50
2023-04-27T19:40:12.067Z,41.56
2023-04-27T19:43:14.981Z,41.43
2023-04-27T19:46:17.468Z,41.34
2023-04-27T19:49:20.268Z,41.41
2023-04-27T19:52:23.320Z,41.57
2023-04-27T19:55:26.326Z,41.64
2023-04-27T19:58:29.172Z,41.74
2023-04-27T20:01:32.517Z,41.59
2023-04-27T20:04:35.768Z,42.06
2023-04-27T20:07:38.370Z,42.50
2023-04-27T20:10:42.065Z,42.89
2023-04-27T20:13:44.405Z,43.20
2023-04-27T20:16:47.893Z,43.65
2023-04-27T20:19:50.249Z,44.77
2023-04-27T20:22:52.897Z,45.14
2023-04-27T20:25:55.860Z,45.20
2023-04-27T20:28:59.071Z,45.15
2023-04-27T20:32:02.544Z,45.35
2023-04-27T20:35:10.432Z,45.85
2023-04-27T20:38:13.315Z,46.09
2023-04-27T20:41:16.126Z,46.71
2023-04-27T20:44:20.758Z,46.80
2023-04-27T20:47:23.428Z,47.21
2023-04-27T20:50:26.460Z,47.44
2023-04-27T20:53:29.255Z,48.05
2023-04-27T20:56:32.967Z,48.25
2023-04-27T20:59:35.622Z,47.74
2023-04-27T21:02:38.012Z,46.84
2023-04-27T21:05:41.755Z,46.91
2023-04-27T21:08:44.236Z,48.52
2023-04-27T21:11:46.925Z,50.11
2023-04-27T21:14:49.276Z,51.50
2023-04-27T21:17:52.009Z,50.87
2023-04-27T21:20:54.892Z,50.85
2023-04-27T21:24:07.253Z,51.52
2023-04-27T21:27:11.513Z,51.23
2023-04-27T21:30:15.331Z,51.57
2023-04-27T21:33:18.140Z,51.72
2023-04-27T21:36:21.154Z,51.24
2023-04-27T21:39:23.513Z,51.43
2023-04-27T21:42:26.402Z,51.78
2023-04-27T21:45:28.978Z,52.15
2023-04-27T21:48:31.600Z,52.26
2023-04-27T21:51:34.799Z,52.09
2023-04-27T21:54:37.474Z,51.92
2023-04-27T21:57:40.109Z,51.60
2023-04-27T22:00:42.813Z,52.00
2023-04-27T22:03:45.791Z,51.84
2023-04-27T22:06:48.863Z,51.92
2023-04-27T22:09:51.506Z,52.26
2023-04-27T22:12:53.810Z,52.05
2023-04-27T22:15:56.486Z,51.50
2023-04-27T22:18:59.762Z,51.47
2023-04-27T22:22:02.463Z,51.41
2023-04-27T22:25:05.231Z,51.16
2023-04-27T22:28:07.867Z,50.88
2023-04-27T22:31:10.444Z,50.85
2023-04-27T22:34:13.590Z,51.76
2023-04-27T22:37:16.124Z,52.77
2023-04-27T22:40:18.791Z,52.38
2023-04-27T22:43:21.074Z,54.00
2023-04-27T22:46:23.795Z,54.28
2023-04-27T22:49:26.274Z,54.01
2023-04-27T22:52:33.655Z,54.49
2023-04-27T22:55:36.059Z,52.99
2023-04-27T22:58:38.618Z,52.30
2023-04-27T23:01:40.971Z,52.61
2023-04-27T23:04:43.889Z,52.79
2023-04-27T23:07:46.474Z,53.28
2023-04-27T23:10:49.182Z,53.33
2023-04-27T23:13:51.510Z,53.12
2023-04-27T23:16:56.366Z,52.96
2023-04-27T23:20:00.254Z,53.57
2023-04-27T23:23:02.832Z,53.79
2023-04-27T23:26:15.159Z,54.41
2023-04-27T23:29:17.799Z,54.47
2023-04-27T23:32:20.715Z,54.54
2023-04-27T23:35:23.346Z,55.39
2023-04-27T23:38:25.679Z,56.19
2023-04-27T23:41:28.354Z,56.53
2023-04-27T23:44:30.787Z,57.49
2023-04-27T23:47:33.917Z,57.72
2023-04-27T23:50:36.486Z,57.91
2023-04-27T23:53:39.140Z,57.69
2023-04-27T23:56:41.474Z,57.75
2023-04-27T23:59:44.128Z,58.01
